createdAt,value
2018-02-22T00:00:51.792Z,15.13
2018-02-22T00:01:54.330Z,15.93
2018-02-22T00:02:56.864Z,14.23
2018-02-22T00:03:59.384Z,15.68
2018-02-22T00:05:01.945Z,14.00
2018-02-22T00:06:04.465Z,14.27
2018-02-22T00:07:06.981Z,14.30
2018-02-22T00:08:09.492Z,15.00
2018-02-22T00:09:12.053Z,14.27
2018-02-22T00:10:14.592Z,14.95
2018-02-22T00:11:17.156Z,13.48
2018-02-22T00:12:19.688Z,14.52
2018-02-22T00:13:22.979Z,14.02
2018-02-22T00:14:25.618Z,13.75
2018-02-22T00:15:28.146Z,15.07
2018-02-22T00:16:30.678Z,15.00
2018-02-22T00:17:33.198Z,14.27
2018-02-22T00:18:35.717Z,14.57
2018-02-22T00:19:38.272Z,14.70
2018-02-22T00:20:41.573Z,14.23
2018-02-22T00:21:44.094Z,15.15
2018-02-22T00:22:46.622Z,14.63
2018-02-22T00:23:49.148Z,15.48
2018-02-22T00:24:52.476Z,13.65
2018-02-22T00:25:55.012Z,14.05
2018-02-22T00:26:57.533Z,14.15
2018-02-22T00:28:00.051Z,13.95
2018-02-22T00:29:02.584Z,14.23
2018-02-22T00:30:05.924Z,15.70
2018-02-22T00:31:08.457Z,15.07
2018-02-22T00:32:10.980Z,15.70
2018-02-22T00:33:13.514Z,14.73
2018-02-22T00:34:16.040Z,15.98
2018-02-22T00:35:19.361Z,13.82
2018-02-22T00:36:21.927Z,14.40
2018-02-22T00:37:24.447Z,16.50
2018-02-22T00:38:27.737Z,13.68
2018-02-22T00:39:31.026Z,14.57
2018-02-22T00:40:34.341Z,14.90
2018-02-22T00:41:36.993Z,13.95
2018-02-22T00:42:39.517Z,14.32
2018-02-22T00:43:42.041Z,13.20
2018-02-22T00:44:44.570Z,13.75
2018-02-22T00:45:47.873Z,14.15
2018-02-22T00:46:50.440Z,14.20
2018-02-22T00:47:52.973Z,13.70
2018-02-22T00:48:55.502Z,14.27
2018-02-22T00:49:58.029Z,13.98
2018-02-22T00:51:01.317Z,14.38
2018-02-22T00:52:04.649Z,13.27
2018-02-22T00:53:07.167Z,14.18
2018-02-22T00:54:10.468Z,14.05
2018-02-22T00:55:12.998Z,14.02
2018-02-22T00:56:16.289Z,13.85
2018-02-22T00:57:19.620Z,13.80
2018-02-22T00:58:22.144Z,15.25
2018-02-22T00:59:25.434Z,13.60
2018-02-22T01:00:28.742Z,15.00
2018-02-22T01:01:31.304Z,15.48
2018-02-22T01:02:33.821Z,13.98
2018-02-22T01:03:36.385Z,14.25
2018-02-22T01:04:38.925Z,14.05
2018-02-22T01:05:41.446Z,14.60
2018-02-22T01:06:44.733Z,13.45
2018-02-22T01:07:48.017Z,14.27
2018-02-22T01:08:50.594Z,14.95
2018-02-22T01:09:53.125Z,15.43
2018-02-22T01:10:55.646Z,14.60
2018-02-22T01:11:58.256Z,15.50
2018-02-22T01:13:00.780Z,13.57
2018-02-22T01:14:03.336Z,14.35
2018-02-22T01:15:05.856Z,12.90
2018-02-22T01:16:08.380Z,15.00
2018-02-22T01:17:10.909Z,13.45
2018-02-22T01:18:14.201Z,13.70
2018-02-22T01:19:16.762Z,15.20
2018-02-22T01:20:20.080Z,15.18
2018-02-22T01:21:22.598Z,13.85
2018-02-22T01:22:25.886Z,14.50
2018-02-22T01:23:29.224Z,14.73
2018-02-22T01:24:31.764Z,14.27
2018-02-22T01:25:34.317Z,13.65
2018-02-22T01:26:36.849Z,13.10
2018-02-22T01:27:39.377Z,15.10
2018-02-22T01:28:41.900Z,14.20
2018-02-22T01:29:45.194Z,13.88
2018-02-22T01:30:48.513Z,15.10
2018-02-22T01:31:51.090Z,14.40
2018-02-22T01:32:53.613Z,14.27
2018-02-22T01:33:56.148Z,14.48
2018-02-22T01:34:58.673Z,13.60
2018-02-22T01:36:01.198Z,13.55
2018-02-22T01:37:04.520Z,13.90
2018-02-22T01:38:07.045Z,13.77
2018-02-22T01:39:10.376Z,15.48
2018-02-22T01:40:12.901Z,14.02
2018-02-22T01:41:16.196Z,13.73
2018-02-22T01:42:19.476Z,14.90
2018-02-22T01:43:22.821Z,13.82
2018-02-22T01:44:25.352Z,15.55
2018-02-22T01:45:27.887Z,13.80
2018-02-22T01:46:31.182Z,13.73
2018-02-22T01:47:33.714Z,14.80
2018-02-22T01:48:36.285Z,14.50
2018-02-22T01:49:38.817Z,14.48
2018-02-22T01:50:41.344Z,14.00
2018-02-22T01:51:44.640Z,14.95
2018-02-22T01:52:47.169Z,14.15
2018-02-22T01:53:49.744Z,15.60
2018-02-22T01:54:53.044Z,14.75
2018-02-22T01:55:56.334Z,13.65
2018-02-22T01:56:58.863Z,14.70
2018-02-22T01:58:01.381Z,14.57
2018-02-22T01:59:03.940Z,15.38
2018-02-22T02:00:06.466Z,13.52
2018-02-22T02:01:09.028Z,13.80
2018-02-22T02:02:11.561Z,13.75
2018-02-22T02:03:14.093Z,14.93
2018-02-22T02:04:17.377Z,14.68
2018-02-22T02:05:20.696Z,14.77
2018-02-22T02:06:23.230Z,14.40
2018-02-22T02:07:25.757Z,14.45
2018-02-22T02:08:28.291Z,13.80
2018-02-22T02:09:30.905Z,14.87
2018-02-22T02:10:34.198Z,15.07
2018-02-22T02:11:37.500Z,12.88
2018-02-22T02:12:40.040Z,13.50
2018-02-22T02:13:43.337Z,13.95
2018-02-22T02:14:46.668Z,14.40
2018-02-22T02:15:49.201Z,13.95
2018-02-22T02:16:51.739Z,15.18
2018-02-22T02:17:54.308Z,14.38
2018-02-22T02:18:57.614Z,14.00
2018-02-22T02:20:00.212Z,15.38
2018-02-22T02:21:02.782Z,13.15
2018-02-22T02:22:05.280Z,13.82
2018-02-22T02:23:07.815Z,14.55
2018-02-22T02:24:10.338Z,14.35
2018-02-22T02:25:13.665Z,12.93
2018-02-22T02:26:16.197Z,14.73
2018-02-22T02:27:18.734Z,14.45
2018-02-22T02:28:21.260Z,14.07
2018-02-22T02:29:23.822Z,14.70
2018-02-22T02:30:26.369Z,14.45
2018-02-22T02:31:28.901Z,15.05
2018-02-22T02:32:31.591Z,14.25
2018-02-22T02:33:34.907Z,14.10
2018-02-22T02:34:37.462Z,14.60
2018-02-22T02:35:39.996Z,14.55
2018-02-22T02:36:43.291Z,14.32
2018-02-22T02:37:45.816Z,14.13
2018-02-22T02:38:48.363Z,14.32
2018-02-22T02:39:50.926Z,14.87
2018-02-22T02:40:53.467Z,13.50
2018-02-22T02:41:55.993Z,13.52
2018-02-22T02:42:58.518Z,14.93
2018-02-22T02:44:01.178Z,14.73
2018-02-22T02:45:03.746Z,13.75
2018-02-22T02:46:06.273Z,13.75
2018-02-22T02:47:09.570Z,13.77
2018-02-22T02:48:12.870Z,13.85
2018-02-22T02:49:15.409Z,13.50
2018-02-22T02:50:18.741Z,14.73
2018-02-22T02:51:21.270Z,14.50
2018-02-22T02:52:24.596Z,15.00
2018-02-22T02:53:27.148Z,15.27
2018-02-22T02:54:29.675Z,13.80
2018-02-22T02:55:32.969Z,14.63
2018-02-22T02:56:36.281Z,14.13
2018-02-22T02:57:38.855Z,14.13
2018-02-22T02:58:41.383Z,14.38
2018-02-22T02:59:44.675Z,14.43
2018-02-22T03:00:47.961Z,15.10
2018-02-22T03:01:51.262Z,15.10
2018-02-22T03:02:53.833Z,13.73
2018-02-22T03:03:56.349Z,14.80
2018-02-22T03:04:58.880Z,13.80
2018-02-22T03:06:01.449Z,14.13
2018-02-22T03:07:03.965Z,13.65
2018-02-22T03:08:07.301Z,13.73
2018-02-22T03:09:09.837Z,12.93
2018-02-22T03:10:12.360Z,14.00
2018-02-22T03:11:14.893Z,15.32
2018-02-22T03:12:17.425Z,14.43
2018-02-22T03:13:20.733Z,15.35
2018-02-22T03:14:23.264Z,15.00
2018-02-22T03:15:26.561Z,14.38
2018-02-22T03:16:29.858Z,13.95
2018-02-22T03:17:32.389Z,13.88
2018-02-22T03:18:34.968Z,13.68
2018-02-22T03:19:38.261Z,14.32
2018-02-22T03:20:41.563Z,14.90
2018-02-22T03:21:44.089Z,13.23
2018-02-22T03:22:46.612Z,12.93
2018-02-22T03:23:49.176Z,14.15
2018-02-22T03:24:51.729Z,13.85
2018-02-22T03:25:54.256Z,13.85
2018-02-22T03:26:56.785Z,14.30
2018-02-22T03:27:59.323Z,13.95
2018-02-22T03:29:01.910Z,13.98
2018-02-22T03:30:04.501Z,14.55
2018-02-22T03:31:07.030Z,14.82
2018-02-22T03:32:09.565Z,13.75
2018-02-22T03:33:12.858Z,14.20
2018-02-22T03:34:16.188Z,13.13
2018-02-22T03:35:18.707Z,14.60
2018-02-22T03:36:22.030Z,14.80
2018-02-22T03:37:24.557Z,13.40
2018-02-22T03:38:27.842Z,14.40
2018-02-22T03:39:31.132Z,14.10
2018-02-22T03:40:33.656Z,13.82
2018-02-22T03:41:36.238Z,14.18
2018-02-22T03:42:38.762Z,13.95
2018-02-22T03:43:41.297Z,14.13
2018-02-22T03:44:43.838Z,14.60
2018-02-22T03:45:46.353Z,13.48
2018-02-22T03:46:48.928Z,14.13
2018-02-22T03:47:51.458Z,13.43
2018-02-22T03:48:54.754Z,15.23
2018-02-22T03:49:57.281Z,13.35
2018-02-22T03:50:59.805Z,13.50
2018-02-22T03:52:02.372Z,14.45
2018-02-22T03:53:04.896Z,14.13
2018-02-22T03:54:08.180Z,14.00
2018-02-22T03:55:11.472Z,14.02
2018-02-22T03:56:14.773Z,14.80
2018-02-22T03:57:17.338Z,13.18
2018-02-22T03:58:19.870Z,13.18
2018-02-22T03:59:22.402Z,12.43
2018-02-22T04:00:24.920Z,13.52
2018-02-22T04:01:28.208Z,14.27
2018-02-22T04:02:30.776Z,13.80
2018-02-22T04:03:33.304Z,13.40
2018-02-22T04:04:35.874Z,13.38
2018-02-22T04:05:38.394Z,13.15
2018-02-22T04:06:40.928Z,14.00
2018-02-22T04:07:44.254Z,12.95
2018-02-22T04:08:46.894Z,14.30
2018-02-22T04:09:49.421Z,13.10
2018-02-22T04:10:51.947Z,13.65
2018-02-22T04:11:54.469Z,13.95
2018-02-22T04:12:57.002Z,13.90
2018-02-22T04:13:59.569Z,13.70
2018-02-22T04:15:02.103Z,13.20
2018-02-22T04:16:04.644Z,13.00
2018-02-22T04:17:07.925Z,13.23
2018-02-22T04:18:11.221Z,13.57
2018-02-22T04:19:14.539Z,13.00
2018-02-22T04:20:17.106Z,14.20
2018-02-22T04:21:19.620Z,12.77
2018-02-22T04:22:23.176Z,14.50
2018-02-22T04:23:26.536Z,13.20
2018-02-22T04:24:29.070Z,13.32
2018-02-22T04:25:32.393Z,13.43
2018-02-22T04:26:34.921Z,13.55
2018-02-22T04:27:38.206Z,13.62
2018-02-22T04:28:41.500Z,12.95
2018-02-22T04:29:44.085Z,14.80
2018-02-22T04:30:46.617Z,14.13
2018-02-22T04:31:49.940Z,14.38
2018-02-22T04:32:52.489Z,13.85
2018-02-22T04:33:55.014Z,14.10
2018-02-22T04:34:57.569Z,12.95
2018-02-22T04:36:00.089Z,12.90
2018-02-22T04:37:02.606Z,13.90
2018-02-22T04:38:05.125Z,13.95
2018-02-22T04:39:07.650Z,13.62
2018-02-22T04:40:10.222Z,13.15
2018-02-22T04:41:12.752Z,14.50
2018-02-22T04:42:15.311Z,13.50
2018-02-22T04:43:17.846Z,14.75
2018-02-22T04:44:20.369Z,13.40
2018-02-22T04:45:22.929Z,13.90
2018-02-22T04:46:25.886Z,15.02
2018-02-22T04:47:28.431Z,14.93
2018-02-22T04:48:30.961Z,14.87
2018-02-22T04:49:33.492Z,15.80
2018-02-22T04:50:36.057Z,16.70
2018-02-22T04:51:38.576Z,13.88
2018-02-22T04:52:41.885Z,16.08
2018-02-22T04:53:44.405Z,15.00
2018-02-22T04:54:46.934Z,15.13
2018-02-22T04:55:49.510Z,17.80
2018-02-22T04:56:52.032Z,16.60
2018-02-22T04:57:54.561Z,15.30
2018-02-22T04:58:57.096Z,16.23
2018-02-22T04:59:59.643Z,15.90
2018-02-22T05:01:02.203Z,20.37
2018-02-22T05:02:04.739Z,16.23
2018-02-22T05:03:08.038Z,21.02
2018-02-22T05:04:11.333Z,19.42
2018-02-22T05:05:13.874Z,16.98
2018-02-22T05:06:17.201Z,16.08
2018-02-22T05:07:19.733Z,15.80
2018-02-22T05:08:23.061Z,19.45
2018-02-22T05:09:25.586Z,16.12
2018-02-22T05:10:28.878Z,15.13
2018-02-22T05:11:31.454Z,15.52
2018-02-22T05:12:34.045Z,16.25
2018-02-22T05:13:36.577Z,15.93
2018-02-22T05:14:39.116Z,14.95
2018-02-22T05:15:41.632Z,15.80
2018-02-22T05:16:44.194Z,15.18
2018-02-22T05:17:46.775Z,17.58
2018-02-22T05:18:49.377Z,15.30
2018-02-22T05:19:51.901Z,15.57
2018-02-22T05:20:54.432Z,19.67
2018-02-22T05:21:57.716Z,17.95
2018-02-22T05:23:01.037Z,20.55
2018-02-22T05:24:03.559Z,26.12
2018-02-22T05:25:06.089Z,19.12
2018-02-22T05:26:08.650Z,18.02
2018-02-22T05:27:11.215Z,17.23
2018-02-22T05:28:13.711Z,15.82
2018-02-22T05:29:16.274Z,15.50
2018-02-22T05:30:18.797Z,15.68
2018-02-22T05:31:21.321Z,16.12
2018-02-22T05:32:23.847Z,18.25
2018-02-22T05:33:26.378Z,17.60
2018-02-22T05:34:28.948Z,16.02
2018-02-22T05:35:31.478Z,16.35
2018-02-22T05:36:34.015Z,16.00
2018-02-22T05:37:36.567Z,17.55
2018-02-22T05:38:39.089Z,25.23
2018-02-22T05:39:42.400Z,29.27
2018-02-22T05:40:44.921Z,29.20
2018-02-22T05:41:47.493Z,26.70
2018-02-22T05:42:50.013Z,17.90
2018-02-22T05:43:52.545Z,18.92
2018-02-22T05:44:55.837Z,15.77
2018-02-22T05:45:58.425Z,17.37
2018-02-22T05:47:00.979Z,18.65
2018-02-22T05:48:03.513Z,17.75
2018-02-22T05:49:06.043Z,16.90
2018-02-22T05:50:08.567Z,20.50
2018-02-22T05:51:11.897Z,21.15
2018-02-22T05:52:14.425Z,23.08
2018-02-22T05:53:16.988Z,23.90
2018-02-22T05:54:19.516Z,25.73
2018-02-22T05:55:22.037Z,26.80
2018-02-22T05:56:24.918Z,32.30
2018-02-22T05:57:27.452Z,33.80
2018-02-22T05:58:30.773Z,34.40
2018-02-22T05:59:33.306Z,32.40
2018-02-22T06:00:36.627Z,32.20
2018-02-22T06:01:39.157Z,33.03
2018-02-22T06:02:42.505Z,33.95
2018-02-22T06:03:45.030Z,33.97
2018-02-22T06:04:47.561Z,34.85
2018-02-22T06:05:50.877Z,28.42
2018-02-22T06:06:53.400Z,32.35
2018-02-22T06:07:55.958Z,32.00
2018-02-22T06:08:58.534Z,30.25
2018-02-22T06:10:01.057Z,30.77
2018-02-22T06:11:03.590Z,29.83
2018-02-22T06:12:06.142Z,29.08
2018-02-22T06:13:09.439Z,28.60
2018-02-22T06:14:12.760Z,28.00
2018-02-22T06:15:15.291Z,25.73
2018-02-22T06:16:18.590Z,28.45
2018-02-22T06:17:21.116Z,26.67
2018-02-22T06:18:23.658Z,23.92
2018-02-22T06:19:26.220Z,24.65
2018-02-22T06:20:28.766Z,25.85
2018-02-22T06:21:31.428Z,24.85
2018-02-22T06:22:33.949Z,25.23
2018-02-22T06:23:36.471Z,24.02
2018-02-22T06:24:38.996Z,23.23
2018-02-22T06:25:41.564Z,22.37
2018-02-22T06:26:44.858Z,22.95
2018-02-22T06:27:47.377Z,23.33
2018-02-22T06:28:49.909Z,23.35
2018-02-22T06:29:52.447Z,21.85
2018-02-22T06:30:55.786Z,22.23
2018-02-22T06:31:59.093Z,25.02
2018-02-22T06:33:01.619Z,23.73
2018-02-22T06:34:04.150Z,22.75
2018-02-22T06:35:07.442Z,23.87
2018-02-22T06:36:11.000Z,22.25
2018-02-22T06:37:13.568Z,22.48
2018-02-22T06:38:16.100Z,22.17
2018-02-22T06:39:18.628Z,22.92
2018-02-22T06:40:21.154Z,21.33
2018-02-22T06:41:23.690Z,21.50
2018-02-22T06:42:26.254Z,21.52
2018-02-22T06:43:28.786Z,22.30
2018-02-22T06:44:32.079Z,21.62
2018-02-22T06:45:34.614Z,20.85
2018-02-22T06:46:37.139Z,20.58
2018-02-22T06:47:39.705Z,24.17
2018-02-22T06:48:42.234Z,22.92
2018-02-22T06:49:45.532Z,21.08
2018-02-22T06:50:48.061Z,20.92
2018-02-22T06:51:50.594Z,20.75
2018-02-22T06:52:53.163Z,21.00
2018-02-22T06:53:55.699Z,19.75
2018-02-22T06:54:58.221Z,19.45
2018-02-22T06:56:00.749Z,20.08
2018-02-22T06:57:03.273Z,19.20
2018-02-22T06:58:06.598Z,20.85
2018-02-22T06:59:09.137Z,18.98
2018-02-22T07:00:12.434Z,17.35
2018-02-22T07:01:14.967Z,18.83
2018-02-22T07:02:17.494Z,18.33
2018-02-22T07:03:20.054Z,18.85
2018-02-22T07:04:22.580Z,19.30
2018-02-22T07:05:25.873Z,18.20
2018-02-22T07:06:28.439Z,18.33
2018-02-22T07:07:31.730Z,16.95
2018-02-22T07:08:34.253Z,17.92
2018-02-22T07:09:36.793Z,18.40
2018-02-22T07:10:39.373Z,18.02
2018-02-22T07:11:41.918Z,18.62
2018-02-22T07:12:44.445Z,19.65
2018-02-22T07:13:47.768Z,18.62
2018-02-22T07:14:50.295Z,19.50
2018-02-22T07:15:53.641Z,17.50
2018-02-22T07:16:56.182Z,20.00
2018-02-22T07:17:59.479Z,18.80
2018-02-22T07:19:02.053Z,18.30
2018-02-22T07:20:05.341Z,18.40
2018-02-22T07:21:07.864Z,18.33
2018-02-22T07:22:10.393Z,19.42
2018-02-22T07:23:16.790Z,19.30
2018-02-22T07:24:15.520Z,19.42
2018-02-22T07:25:18.057Z,18.50
2018-02-22T07:26:20.636Z,20.10
2018-02-22T07:27:23.152Z,20.40
2018-02-22T07:28:26.461Z,18.62
2018-02-22T07:29:28.998Z,21.12
2018-02-22T07:30:32.295Z,21.73
2018-02-22T07:31:34.861Z,19.70
2018-02-22T07:32:37.394Z,19.45
2018-02-22T07:33:39.925Z,21.87
2018-02-22T07:34:43.218Z,20.30
2018-02-22T07:35:45.745Z,21.30
2018-02-22T07:36:48.316Z,20.02
2018-02-22T07:37:50.847Z,20.45
2018-02-22T07:38:53.417Z,20.15
2018-02-22T07:39:56.719Z,22.23
2018-02-22T07:41:00.012Z,20.60
2018-02-22T07:42:02.528Z,20.33
2018-02-22T07:43:05.097Z,19.80
2018-02-22T07:44:07.648Z,21.62
2018-02-22T07:45:10.185Z,19.52
2018-02-22T07:46:12.713Z,20.80
2018-02-22T07:47:15.251Z,19.75
2018-02-22T07:48:17.798Z,20.08
2018-02-22T07:49:20.358Z,20.52
2018-02-22T07:50:22.884Z,20.70
2018-02-22T07:51:26.193Z,19.80
2018-02-22T07:52:28.723Z,20.95
2018-02-22T07:53:31.241Z,22.45
2018-02-22T07:54:33.804Z,22.02
2018-02-22T07:55:36.355Z,20.20
2018-02-22T07:56:38.929Z,20.85
2018-02-22T07:57:41.445Z,22.05
2018-02-22T07:58:43.972Z,21.42
2018-02-22T07:59:46.493Z,21.15
2018-02-22T08:00:49.029Z,22.48
2018-02-22T08:01:52.374Z,21.52
2018-02-22T08:02:54.898Z,23.42
2018-02-22T08:03:57.422Z,21.87
2018-02-22T08:04:59.994Z,21.42
2018-02-22T08:06:02.515Z,21.23
2018-02-22T08:07:05.838Z,21.27
2018-02-22T08:08:08.421Z,21.27
2018-02-22T08:09:10.913Z,22.13
2018-02-22T08:10:13.437Z,21.48
2018-02-22T08:11:16.014Z,20.85
2018-02-22T08:12:18.684Z,23.10
2018-02-22T08:13:21.212Z,23.30
2018-02-22T08:14:24.508Z,22.75
2018-02-22T08:15:27.034Z,22.92
2018-02-22T08:16:29.594Z,22.30
2018-02-22T08:17:32.174Z,22.15
2018-02-22T08:18:34.702Z,23.45
2018-02-22T08:19:37.234Z,21.98
2018-02-22T08:20:39.770Z,20.90
2018-02-22T08:21:42.297Z,22.20
2018-02-22T08:22:44.905Z,21.25
2018-02-22T08:23:47.513Z,21.58
2018-02-22T08:24:50.047Z,22.60
2018-02-22T08:25:53.344Z,22.73
2018-02-22T08:26:56.915Z,22.65
2018-02-22T08:28:00.245Z,20.77
2018-02-22T08:29:02.787Z,21.02
2018-02-22T08:30:06.096Z,22.42
2018-02-22T08:31:08.617Z,21.45
2018-02-22T08:32:11.158Z,22.17
2018-02-22T08:33:13.722Z,19.85
2018-02-22T08:34:16.249Z,20.80
2018-02-22T08:35:18.776Z,21.42
2018-02-22T08:36:21.402Z,20.52
2018-02-22T08:37:23.929Z,21.12
2018-02-22T08:38:27.220Z,18.95
2018-02-22T08:39:30.005Z,19.67
2018-02-22T08:40:32.558Z,20.65
2018-02-22T08:41:35.095Z,19.95
2018-02-22T08:42:37.624Z,20.25
2018-02-22T08:43:40.157Z,20.33
2018-02-22T08:44:42.717Z,21.27
2018-02-22T08:45:46.019Z,18.87
2018-02-22T08:46:48.550Z,20.65
2018-02-22T08:47:51.075Z,19.73
2018-02-22T08:48:53.597Z,19.77
2018-02-22T08:49:56.926Z,17.80
2018-02-22T08:50:59.679Z,19.85
2018-02-22T08:52:02.243Z,19.40
2018-02-22T08:53:04.765Z,19.70
2018-02-22T08:54:07.289Z,20.37
2018-02-22T08:55:09.814Z,19.20
2018-02-22T08:56:13.146Z,19.10
2018-02-22T08:57:15.673Z,17.90
2018-02-22T08:58:18.205Z,17.50
2018-02-22T08:59:21.517Z,18.27
2018-02-22T09:00:24.062Z,16.33
2018-02-22T09:01:26.620Z,16.05
2018-02-22T09:02:29.185Z,15.70
2018-02-22T09:03:31.709Z,16.75
2018-02-22T09:04:34.238Z,15.30
2018-02-22T09:05:37.572Z,14.85
2018-02-22T09:06:40.122Z,17.27
2018-02-22T09:07:42.650Z,17.00
2018-02-22T09:08:45.358Z,17.25
2018-02-22T09:09:48.756Z,16.08
2018-02-22T09:10:51.280Z,16.05
2018-02-22T09:11:54.614Z,14.65
2018-02-22T09:12:57.138Z,17.27
2018-02-22T09:14:00.423Z,15.10
2018-02-22T09:15:03.720Z,14.85
2018-02-22T09:16:06.249Z,17.05
2018-02-22T09:17:08.809Z,16.23
2018-02-22T09:18:11.329Z,15.88
2018-02-22T09:19:13.848Z,16.08
2018-02-22T09:20:16.406Z,15.90
2018-02-22T09:21:18.917Z,14.87
2018-02-22T09:22:21.442Z,16.25
2018-02-22T09:23:24.000Z,15.00
2018-02-22T09:24:26.529Z,14.87
2018-02-22T09:25:29.051Z,15.40
2018-02-22T09:26:31.573Z,13.60
2018-02-22T09:27:34.125Z,14.75
2018-02-22T09:28:36.645Z,14.40
2018-02-22T09:29:39.199Z,14.85
2018-02-22T09:30:41.725Z,13.20
2018-02-22T09:31:44.254Z,14.10
2018-02-22T09:32:47.541Z,14.25
2018-02-22T09:33:50.829Z,14.18
2018-02-22T09:34:54.145Z,15.45
2018-02-22T09:35:56.678Z,14.40
2018-02-22T09:36:59.985Z,12.15
2018-02-22T09:38:02.510Z,12.13
2018-02-22T09:39:05.033Z,12.88
2018-02-22T09:40:07.588Z,12.85
2018-02-22T09:41:10.113Z,11.90
2018-02-22T09:42:12.628Z,13.88
2018-02-22T09:43:15.151Z,11.43
2018-02-22T09:44:18.438Z,11.75
2018-02-22T09:45:21.769Z,10.63
2018-02-22T09:46:24.285Z,11.75
2018-02-22T09:47:27.570Z,10.80
2018-02-22T09:48:30.891Z,11.10
2018-02-22T09:49:33.417Z,12.20
2018-02-22T09:50:35.965Z,11.23
2018-02-22T09:51:38.477Z,12.48
2018-02-22T09:52:40.998Z,12.23
2018-02-22T09:53:43.521Z,12.32
2018-02-22T09:54:46.041Z,11.43
2018-02-22T09:55:48.597Z,11.00
2018-02-22T09:56:51.123Z,12.05
2018-02-22T09:57:53.648Z,11.73
2018-02-22T09:58:57.009Z,12.80
2018-02-22T09:59:59.529Z,11.98
2018-02-22T10:01:02.096Z,12.40
2018-02-22T10:02:04.609Z,12.85
2018-02-22T10:03:07.126Z,12.88
2018-02-22T10:04:09.676Z,13.15
2018-02-22T10:05:12.969Z,12.20
2018-02-22T10:06:15.504Z,11.95
2018-02-22T10:07:18.061Z,13.62
2018-02-22T10:08:20.581Z,12.15
2018-02-22T10:09:23.160Z,13.00
2018-02-22T10:10:25.700Z,12.85
2018-02-22T10:11:28.217Z,12.75
2018-02-22T10:12:30.738Z,12.48
2018-02-22T10:13:33.253Z,12.05
2018-02-22T10:14:35.806Z,12.68
2018-02-22T10:15:38.321Z,13.25
2018-02-22T10:16:41.609Z,13.73
2018-02-22T10:17:44.133Z,13.55
2018-02-22T10:18:46.648Z,12.80
2018-02-22T10:19:49.208Z,13.50
2018-02-22T10:20:51.721Z,13.52
2018-02-22T10:21:54.236Z,12.13
2018-02-22T10:22:57.565Z,13.18
2018-02-22T10:24:00.057Z,11.63
2018-02-22T10:25:02.626Z,12.70
2018-02-22T10:26:05.155Z,13.48
2018-02-22T10:27:07.750Z,13.65
2018-02-22T10:28:10.267Z,12.23
2018-02-22T10:29:12.788Z,12.75
2018-02-22T10:30:15.352Z,9.75
2018-02-22T10:31:17.878Z,10.63
2018-02-22T10:32:20.405Z,11.18
2018-02-22T10:33:23.696Z,10.35
2018-02-22T10:34:27.126Z,9.70
2018-02-22T10:35:29.681Z,10.90
2018-02-22T10:36:32.199Z,9.57
2018-02-22T10:37:35.526Z,9.45
2018-02-22T10:38:38.046Z,9.80
2018-02-22T10:39:40.578Z,9.95
2018-02-22T10:40:43.096Z,10.18
2018-02-22T10:41:46.378Z,9.35
2018-02-22T10:42:49.695Z,9.63
2018-02-22T10:43:52.217Z,9.73
2018-02-22T10:44:55.557Z,8.80
2018-02-22T10:45:58.080Z,9.38
2018-02-22T10:47:01.366Z,10.02
2018-02-22T10:48:04.653Z,8.60
2018-02-22T10:49:07.185Z,9.70
2018-02-22T10:50:09.730Z,8.35
2018-02-22T10:51:12.258Z,10.10
2018-02-22T10:52:14.811Z,9.48
2018-02-22T10:53:18.095Z,9.93
2018-02-22T10:54:21.369Z,8.65
2018-02-22T10:55:24.683Z,9.00
2018-02-22T10:56:27.197Z,8.55
2018-02-22T10:57:29.755Z,8.98
2018-02-22T10:58:32.283Z,9.27
2018-02-22T10:59:34.802Z,8.60
2018-02-22T11:00:43.032Z,9.00
2018-02-22T11:01:51.929Z,10.07
2018-02-22T11:02:55.217Z,9.50
2018-02-22T11:03:58.496Z,9.05
2018-02-22T11:05:01.080Z,9.75
2018-02-22T11:06:03.613Z,9.77
2018-02-22T11:07:06.164Z,9.88
2018-02-22T11:08:08.725Z,10.25
2018-02-22T11:09:11.241Z,9.57
2018-02-22T11:10:14.577Z,9.80
2018-02-22T11:11:17.094Z,9.85
2018-02-22T11:12:20.377Z,10.02
2018-02-22T11:13:23.666Z,10.10
2018-02-22T11:14:26.189Z,10.43
2018-02-22T11:15:28.742Z,9.55
2018-02-22T11:16:31.268Z,11.32
2018-02-22T11:17:33.790Z,10.23
2018-02-22T11:18:36.317Z,9.95
2018-02-22T11:19:38.835Z,10.55
2018-02-22T11:20:41.401Z,8.85
2018-02-22T11:21:43.926Z,9.63
2018-02-22T11:22:46.459Z,10.23
2018-02-22T11:23:49.746Z,10.35
2018-02-22T11:24:52.279Z,10.82
2018-02-22T11:25:54.847Z,11.02
2018-02-22T11:26:57.398Z,9.93
2018-02-22T11:27:59.946Z,9.48
2018-02-22T11:29:02.465Z,9.45
2018-02-22T11:30:05.756Z,10.60
2018-02-22T11:31:09.074Z,11.02
2018-02-22T11:32:11.601Z,9.75
2018-02-22T11:33:14.925Z,11.05
2018-02-22T11:34:17.461Z,11.27
2018-02-22T11:35:19.981Z,10.10
2018-02-22T11:36:22.505Z,10.50
2018-02-22T11:37:25.030Z,10.52
2018-02-22T11:38:27.600Z,10.10
2018-02-22T11:39:30.126Z,10.50
2018-02-22T11:40:32.659Z,10.43
2018-02-22T11:41:35.185Z,10.60
2018-02-22T11:42:37.697Z,10.13
2018-02-22T11:43:40.266Z,10.40
2018-02-22T11:44:42.789Z,10.25
2018-02-22T11:45:45.323Z,9.60
2018-02-22T11:46:47.861Z,10.35
2018-02-22T11:47:50.390Z,10.52
2018-02-22T11:48:52.958Z,9.95
2018-02-22T11:49:55.489Z,10.00
2018-02-22T11:50:58.008Z,9.77
2018-02-22T11:52:01.294Z,9.73
2018-02-22T11:53:04.577Z,10.60
2018-02-22T11:54:07.919Z,9.52
2018-02-22T11:55:10.448Z,8.88
2018-02-22T11:56:12.970Z,9.52
2018-02-22T11:57:15.484Z,9.52
2018-02-22T11:58:18.034Z,9.48
2018-02-22T11:59:20.593Z,9.85
2018-02-22T12:00:23.888Z,9.48
2018-02-22T12:01:26.409Z,10.18
2018-02-22T12:02:28.934Z,10.60
2018-02-22T12:03:31.498Z,9.15
2018-02-22T12:04:34.025Z,8.98
2018-02-22T12:05:36.540Z,9.70
2018-02-22T12:06:39.061Z,10.15
2018-02-22T12:07:42.353Z,10.05
2018-02-22T12:08:45.678Z,9.25
2018-02-22T12:09:48.196Z,8.98
2018-02-22T12:10:51.489Z,8.38
2018-02-22T12:11:54.014Z,8.88
2018-02-22T12:12:56.545Z,8.23
2018-02-22T12:13:59.102Z,8.10
2018-02-22T12:15:01.627Z,8.40
2018-02-22T12:16:04.156Z,8.55
2018-02-22T12:17:06.681Z,8.82
2018-02-22T12:18:09.987Z,8.60
2018-02-22T12:19:12.556Z,7.85
2018-02-22T12:20:15.076Z,9.30
2018-02-22T12:21:17.594Z,9.48
2018-02-22T12:22:20.110Z,10.15
2018-02-22T12:23:22.628Z,9.25
2018-02-22T12:24:25.176Z,9.02
2018-02-22T12:25:27.698Z,8.40
2018-02-22T12:26:30.247Z,10.35
2018-02-22T12:27:32.764Z,9.85
2018-02-22T12:28:36.049Z,9.27
2018-02-22T12:29:39.333Z,9.13
2018-02-22T12:30:42.613Z,8.20
2018-02-22T12:31:45.932Z,8.88
2018-02-22T12:32:48.453Z,9.40
2018-02-22T12:33:51.743Z,9.27
2018-02-22T12:34:55.035Z,9.18
2018-02-22T12:35:57.565Z,9.35
2018-02-22T12:37:00.137Z,8.52
2018-02-22T12:38:02.663Z,8.80
2018-02-22T12:39:05.241Z,10.82
2018-02-22T12:40:07.769Z,9.88
2018-02-22T12:41:10.298Z,10.00
2018-02-22T12:42:12.847Z,8.52
2018-02-22T12:43:15.436Z,10.15
2018-02-22T12:44:17.953Z,9.77
2018-02-22T12:45:20.473Z,9.80
2018-02-22T12:46:23.026Z,10.45
2018-02-22T12:47:25.553Z,10.60
2018-02-22T12:48:28.070Z,10.32
2018-02-22T12:49:30.622Z,8.75
2018-02-22T12:50:33.132Z,10.75
2018-02-22T12:51:35.651Z,10.00
2018-02-22T12:52:38.178Z,10.18
2018-02-22T12:53:40.700Z,10.10
2018-02-22T12:54:43.248Z,9.35
2018-02-22T12:55:45.769Z,11.35
2018-02-22T12:56:48.291Z,10.45
2018-02-22T12:57:50.850Z,10.25
2018-02-22T12:58:53.380Z,10.52
2018-02-22T12:59:55.898Z,10.50
2018-02-22T13:00:58.598Z,9.98
2018-02-22T13:02:01.157Z,9.48
2018-02-22T13:03:03.686Z,9.07
2018-02-22T13:04:06.211Z,10.25
2018-02-22T13:05:08.731Z,9.50
2018-02-22T13:06:11.290Z,8.60
2018-02-22T13:07:13.801Z,9.18
2018-02-22T13:08:16.326Z,7.57
2018-02-22T13:09:18.842Z,7.78
2018-02-22T13:10:21.368Z,7.30
2018-02-22T13:11:24.688Z,7.25
2018-02-22T13:12:27.212Z,7.80
2018-02-22T13:13:29.730Z,8.60
2018-02-22T13:14:32.249Z,8.60
2018-02-22T13:15:35.535Z,8.25
2018-02-22T13:16:38.854Z,8.77
2018-02-22T13:17:41.370Z,8.70
2018-02-22T13:18:43.890Z,9.68
2018-02-22T13:19:46.427Z,9.02
2018-02-22T13:20:49.746Z,7.95
2018-02-22T13:21:52.258Z,8.38
2018-02-22T13:22:54.777Z,8.80
2018-02-22T13:23:57.330Z,8.55
2018-02-22T13:24:59.861Z,9.20
2018-02-22T13:26:02.401Z,9.80
2018-02-22T13:27:04.951Z,8.95
2018-02-22T13:28:07.473Z,8.40
2018-02-22T13:29:10.792Z,8.38
2018-02-22T13:30:13.306Z,9.35
2018-02-22T13:31:16.622Z,8.18
2018-02-22T13:32:19.176Z,8.32